createdAt,value
2023-03-28T00:01:02.043Z,9.10
2023-03-28T00:03:29.838Z,9.25
2023-03-28T00:06:03.442Z,10.68
2023-03-28T00:08:30.821Z,9.13
2023-03-28T00:11:21.824Z,9.32
2023-03-28T00:13:58.355Z,9.23
2023-03-28T00:16:32.829Z,8.43
2023-03-28T00:19:08.266Z,8.38
2023-03-28T00:21:41.622Z,10.38
2023-03-28T00:24:14.182Z,8.57
2023-03-28T00:26:42.433Z,10.48
2023-03-28T00:29:15.947Z,13.27
2023-03-28T00:31:43.205Z,11.40
2023-03-28T00:34:10.402Z,10.38
2023-03-28T00:36:39.906Z,11.75
2023-03-28T00:39:07.328Z,10.48
2023-03-28T00:41:37.163Z,12.07
2023-03-28T00:44:39.170Z,11.18
2023-03-28T00:47:27.393Z,12.05
2023-03-28T00:50:07.209Z,11.25
2023-03-28T00:52:40.455Z,11.90
2023-03-28T00:55:12.594Z,9.85
2023-03-28T00:57:40.997Z,9.23
2023-03-28T01:00:12.882Z,9.48
2023-03-28T01:02:45.917Z,10.35
2023-03-28T01:07:46.866Z,8.68
2023-03-28T01:10:14.265Z,9.10
2023-03-28T01:12:43.474Z,10.77
2023-03-28T01:15:11.616Z,12.95
2023-03-28T01:17:38.788Z,8.88
2023-03-28T01:20:30.709Z,11.25
2023-03-28T01:23:54.153Z,9.10
2023-03-28T01:26:46.801Z,9.82
2023-03-28T01:29:51.253Z,10.90
2023-03-28T01:32:55.536Z,10.15
2023-03-28T01:35:33.163Z,10.20
2023-03-28T01:38:51.115Z,9.05
2023-03-28T01:41:36.866Z,10.90
2023-03-28T01:44:17.556Z,9.77
2023-03-28T01:47:01.562Z,9.77
2023-03-28T01:50:02.364Z,12.00
2023-03-28T01:52:51.351Z,10.05
2023-03-28T01:55:22.055Z,10.93
2023-03-28T01:58:14.434Z,11.50
2023-03-28T02:00:46.622Z,12.55
2023-03-28T02:03:22.219Z,12.48
2023-03-28T02:05:50.440Z,12.07
2023-03-28T02:08:19.587Z,9.65
2023-03-28T02:10:47.134Z,10.63
2023-03-28T02:13:33.127Z,12.80
2023-03-28T02:16:02.574Z,11.82
2023-03-28T02:18:34.331Z,9.02
2023-03-28T02:21:13.606Z,9.70
2023-03-28T02:23:47.441Z,9.48
2023-03-28T02:26:14.932Z,10.77
2023-03-28T02:28:44.467Z,12.15
2023-03-28T02:31:13.837Z,11.90
2023-03-28T02:33:47.123Z,10.45
2023-03-28T02:36:41.186Z,12.85
2023-03-28T02:39:26.786Z,13.25
2023-03-28T02:42:29.406Z,12.45
2023-03-28T02:45:20.502Z,11.80
2023-03-28T02:48:13.070Z,12.02
2023-03-28T02:51:12.626Z,10.70
2023-03-28T02:54:05.431Z,10.93
2023-03-28T02:56:37.229Z,11.88
2023-03-28T02:59:13.633Z,10.77
2023-03-28T03:01:41.767Z,11.27
2023-03-28T03:04:09.109Z,14.32
2023-03-28T03:06:36.859Z,13.75
2023-03-28T03:09:05.021Z,12.82
2023-03-28T03:11:32.544Z,19.25
2023-03-28T03:14:00.549Z,14.30
2023-03-28T03:16:29.358Z,13.95
2023-03-28T03:18:59.725Z,12.88
2023-03-28T03:21:27.406Z,15.13
2023-03-28T03:23:54.536Z,14.15
2023-03-28T03:26:22.612Z,15.13
2023-03-28T03:28:49.863Z,14.30
2023-03-28T03:31:17.623Z,14.10
2023-03-28T03:33:44.691Z,13.73
2023-03-28T03:36:12.966Z,14.73
2023-03-28T03:38:40.433Z,16.65
2023-03-28T03:41:07.573Z,18.25
2023-03-28T03:43:34.651Z,18.45
2023-03-28T03:46:02.943Z,17.30
2023-03-28T03:48:30.308Z,17.13
2023-03-28T03:50:57.287Z,18.77
2023-03-28T03:53:24.448Z,17.60
2023-03-28T03:55:51.473Z,20.73
2023-03-28T03:58:20.578Z,15.35
2023-03-28T04:00:49.076Z,18.27
2023-03-28T04:03:25.010Z,20.02
2023-03-28T04:05:55.113Z,17.17
2023-03-28T04:08:22.293Z,18.27
2023-03-28T04:10:49.874Z,16.08
2023-03-28T04:13:16.854Z,15.48
2023-03-28T04:15:45.892Z,17.95
2023-03-28T04:18:15.686Z,19.45
2023-03-28T04:20:43.394Z,17.40
2023-03-28T04:23:10.791Z,19.00
2023-03-28T04:25:37.785Z,16.00
2023-03-28T04:28:04.973Z,16.85
2023-03-28T04:30:33.737Z,15.95
2023-03-28T04:33:01.935Z,16.20
2023-03-28T04:35:29.985Z,17.75
2023-03-28T04:38:01.021Z,19.25
2023-03-28T04:40:29.440Z,20.17
2023-03-28T04:42:56.754Z,19.42
2023-03-28T04:45:26.531Z,19.45
2023-03-28T04:47:54.014Z,19.60
2023-03-28T04:50:21.352Z,15.68
2023-03-28T04:52:48.600Z,19.83
2023-03-28T04:55:16.355Z,16.70
2023-03-28T04:57:43.474Z,17.95
2023-03-28T05:00:13.025Z,12.23
2023-03-28T05:02:40.227Z,13.02
2023-03-28T05:05:07.779Z,12.85
2023-03-28T05:07:35.242Z,15.82
2023-03-28T05:10:02.365Z,17.27
2023-03-28T05:12:29.852Z,13.77
2023-03-28T05:14:56.845Z,11.45
2023-03-28T05:17:24.909Z,16.08
2023-03-28T05:19:52.165Z,13.02
2023-03-28T05:22:19.235Z,12.98
2023-03-28T05:24:46.326Z,14.25
2023-03-28T05:27:13.423Z,15.73
2023-03-28T05:29:40.422Z,11.20
2023-03-28T05:32:07.739Z,12.45
2023-03-28T05:34:36.300Z,10.05
2023-03-28T05:37:03.550Z,8.55
2023-03-28T05:39:30.586Z,8.43
2023-03-28T05:41:57.563Z,11.85
2023-03-28T05:44:24.625Z,10.43
2023-03-28T05:46:51.641Z,14.55
2023-03-28T05:49:18.691Z,15.13
2023-03-28T05:51:45.747Z,10.30
2023-03-28T05:54:13.313Z,8.38
2023-03-28T05:56:40.344Z,13.38
2023-03-28T05:59:07.383Z,10.25
2023-03-28T06:01:35.051Z,10.27
2023-03-28T06:04:02.131Z,10.35
2023-03-28T06:06:29.740Z,11.20
2023-03-28T06:08:56.901Z,10.65
2023-03-28T06:11:26.010Z,10.65
2023-03-28T06:13:53.053Z,9.55
2023-03-28T06:16:20.202Z,6.93
2023-03-28T06:19:10.477Z,10.27
2023-03-28T06:24:11.249Z,9.48
2023-03-28T06:26:38.603Z,10.13
2023-03-28T06:29:06.614Z,11.18
2023-03-28T06:31:33.984Z,7.72
2023-03-28T06:34:01.326Z,8.35
2023-03-28T06:36:28.464Z,11.38
2023-03-28T06:38:55.637Z,8.52
2023-03-28T06:41:22.673Z,8.77
2023-03-28T06:43:49.790Z,8.82
2023-03-28T06:46:17.030Z,12.43
2023-03-28T06:48:44.124Z,10.60
2023-03-28T06:51:13.034Z,7.53
2023-03-28T06:53:40.062Z,9.30
2023-03-28T06:56:07.815Z,7.43
2023-03-28T06:58:34.864Z,12.38
2023-03-28T07:01:02.189Z,9.10
2023-03-28T07:03:32.640Z,12.18
2023-03-28T07:06:04.898Z,13.80
2023-03-28T07:08:32.080Z,13.27
2023-03-28T07:10:59.351Z,13.13
2023-03-28T07:13:26.822Z,11.38
2023-03-28T07:16:05.962Z,8.40
2023-03-28T07:18:34.047Z,11.68
2023-03-28T07:21:09.962Z,10.38
2023-03-28T07:23:39.495Z,10.02
2023-03-28T07:26:08.100Z,8.70
2023-03-28T07:28:36.104Z,7.82
2023-03-28T07:31:04.889Z,7.93
2023-03-28T07:33:37.434Z,6.20
2023-03-28T07:36:11.208Z,6.63
2023-03-28T07:41:05.711Z,7.93
2023-03-28T07:43:32.807Z,6.05
2023-03-28T07:46:06.763Z,10.10
2023-03-28T07:48:35.551Z,11.13
2023-03-28T07:51:03.954Z,11.13
2023-03-28T07:53:31.278Z,13.82
2023-03-28T07:55:58.608Z,14.52
2023-03-28T07:58:25.914Z,11.38
2023-03-28T08:00:53.074Z,12.65
2023-03-28T08:03:20.341Z,16.27
2023-03-28T08:05:52.153Z,15.10
2023-03-28T08:08:21.755Z,17.70
2023-03-28T08:10:51.777Z,21.10
2023-03-28T08:13:21.305Z,18.70
2023-03-28T08:15:55.284Z,17.55
2023-03-28T08:18:25.334Z,19.65
2023-03-28T08:21:02.381Z,14.73
2023-03-28T08:23:29.937Z,17.35
2023-03-28T08:26:03.138Z,16.02
2023-03-28T08:30:57.754Z,20.65
2023-03-28T08:33:25.255Z,19.15
2023-03-28T08:35:53.541Z,18.30
2023-03-28T08:38:21.079Z,16.25
2023-03-28T08:41:01.697Z,8.80
2023-03-28T08:43:53.903Z,14.43
2023-03-28T08:46:24.376Z,12.73
2023-03-28T08:48:53.137Z,15.02
2023-03-28T08:51:37.649Z,11.98
2023-03-28T08:54:22.066Z,14.70
2023-03-28T08:57:00.908Z,13.15
2023-03-28T08:59:41.039Z,12.65
2023-03-28T09:02:21.760Z,15.80
2023-03-28T09:04:50.796Z,16.42
2023-03-28T09:07:39.887Z,15.57
2023-03-28T09:10:34.160Z,13.57
2023-03-28T09:13:23.162Z,15.52
2023-03-28T09:16:38.528Z,12.43
2023-03-28T09:19:18.263Z,12.23
2023-03-28T09:22:15.740Z,11.30
2023-03-28T09:24:48.203Z,8.95
2023-03-28T09:27:35.138Z,12.10
2023-03-28T09:30:29.513Z,7.63
2023-03-28T09:33:00.267Z,4.53
2023-03-28T09:35:28.970Z,9.27
2023-03-28T09:38:05.958Z,8.80
2023-03-28T09:40:34.935Z,7.70
2023-03-28T09:43:10.870Z,10.90
2023-03-28T09:46:20.248Z,8.05
2023-03-28T09:48:48.357Z,7.60
2023-03-28T09:51:18.461Z,5.95
2023-03-28T09:53:45.759Z,6.53
2023-03-28T09:56:29.837Z,5.85
2023-03-28T09:58:59.402Z,4.40
2023-03-28T10:01:50.137Z,5.22
2023-03-28T10:04:21.091Z,3.22
2023-03-28T10:06:48.458Z,5.05
2023-03-28T10:09:28.851Z,2.70
2023-03-28T10:12:09.548Z,4.63
2023-03-28T10:14:42.657Z,8.10
2023-03-28T10:19:44.486Z,4.35
2023-03-28T10:22:34.109Z,6.68
2023-03-28T10:25:07.567Z,4.18
2023-03-28T10:27:37.666Z,3.95
2023-03-28T10:30:13.970Z,4.55
2023-03-28T10:32:41.860Z,3.85
2023-03-28T10:35:30.636Z,2.35
2023-03-28T10:38:03.801Z,6.15
2023-03-28T10:40:32.620Z,4.20
2023-03-28T10:42:59.760Z,4.57
2023-03-28T10:45:40.390Z,3.63
2023-03-28T10:48:22.128Z,3.58
2023-03-28T10:50:53.021Z,5.32
2023-03-28T10:53:53.712Z,4.82
2023-03-28T10:56:41.655Z,4.55
2023-03-28T10:59:50.849Z,3.75
2023-03-28T11:02:47.460Z,3.55
2023-03-28T11:06:08.601Z,2.78
2023-03-28T11:08:54.677Z,2.97
2023-03-28T11:11:36.881Z,6.25
2023-03-28T11:14:15.788Z,3.08
2023-03-28T11:16:51.507Z,5.80
2023-03-28T11:19:39.699Z,5.05
2023-03-28T11:22:29.884Z,4.50
2023-03-28T11:25:37.586Z,3.20
2023-03-28T11:28:17.454Z,5.72
2023-03-28T11:30:50.077Z,7.85
2023-03-28T11:33:25.294Z,2.70
2023-03-28T11:36:01.702Z,6.00
2023-03-28T11:38:36.177Z,5.10
2023-03-28T11:41:06.924Z,5.47
2023-03-28T11:43:50.142Z,5.18
2023-03-28T11:46:24.766Z,7.47
2023-03-28T11:49:06.489Z,6.47
2023-03-28T11:51:57.245Z,7.70
2023-03-28T11:54:38.269Z,7.68
2023-03-28T11:57:25.205Z,7.75
2023-03-28T12:00:05.289Z,7.72
2023-03-28T12:02:53.098Z,6.00
2023-03-28T12:05:33.081Z,7.57
2023-03-28T12:08:26.478Z,7.82
2023-03-28T12:13:41.750Z,5.85
2023-03-28T12:16:17.642Z,5.97
2023-03-28T12:19:03.131Z,6.38
2023-03-28T12:21:39.172Z,7.35
2023-03-28T12:24:17.733Z,8.90
2023-03-28T12:27:17.495Z,6.93
2023-03-28T12:29:53.553Z,7.78
2023-03-28T12:32:37.048Z,8.38
2023-03-28T12:35:38.531Z,10.00
2023-03-28T12:38:42.593Z,6.30
2023-03-28T12:41:14.950Z,6.93
2023-03-28T12:43:47.184Z,6.07
2023-03-28T12:46:18.959Z,6.90
2023-03-28T12:48:57.019Z,10.38
2023-03-28T12:51:49.375Z,8.13
2023-03-28T12:54:16.889Z,16.23
2023-03-28T12:57:09.316Z,18.30
2023-03-28T12:59:39.705Z,12.77
2023-03-28T13:02:25.988Z,16.73
2023-03-28T13:05:14.071Z,13.10
2023-03-28T13:08:06.924Z,14.15
2023-03-28T13:10:40.330Z,13.35
2023-03-28T13:13:21.232Z,7.65
2023-03-28T13:16:15.692Z,9.18
2023-03-28T13:19:12.585Z,11.27
2023-03-28T13:21:46.689Z,10.93
2023-03-28T13:24:26.716Z,9.30
2023-03-28T13:27:01.529Z,7.70
2023-03-28T13:30:04.012Z,9.70
2023-03-28T13:32:46.872Z,8.27
2023-03-28T13:35:40.327Z,9.68
2023-03-28T13:38:29.273Z,6.93
2023-03-28T13:41:02.832Z,6.60
2023-03-28T13:43:45.316Z,5.60
2023-03-28T13:46:39.327Z,7.75
2023-03-28T13:49:18.381Z,7.82
2023-03-28T13:52:04.587Z,6.28
2023-03-28T13:54:32.518Z,8.63
2023-03-28T13:57:06.808Z,6.32
2023-03-28T13:59:41.505Z,6.63
2023-03-28T14:02:32.107Z,7.30
2023-03-28T14:05:18.522Z,12.52
2023-03-28T14:07:46.719Z,8.52
2023-03-28T14:10:30.933Z,7.22
2023-03-28T14:13:21.535Z,8.45
2023-03-28T14:15:52.275Z,8.23
2023-03-28T14:18:23.604Z,9.27
2023-03-28T14:20:51.341Z,9.20
2023-03-28T14:23:40.961Z,11.95
2023-03-28T14:26:23.870Z,9.85
2023-03-28T14:28:52.676Z,9.27
2023-03-28T14:31:47.316Z,8.38
2023-03-28T14:34:32.364Z,9.85
2023-03-28T14:37:01.486Z,5.55
2023-03-28T14:39:31.778Z,7.07
2023-03-28T14:42:04.152Z,8.55
2023-03-28T14:44:37.414Z,7.18
2023-03-28T14:47:05.719Z,9.95
2023-03-28T14:49:33.429Z,7.93
2023-03-28T14:52:04.119Z,4.82
2023-03-28T14:54:39.289Z,8.10
2023-03-28T14:57:08.167Z,8.50
2023-03-28T14:59:41.377Z,6.78
2023-03-28T15:05:08.365Z,8.15
2023-03-28T15:07:37.497Z,6.35
2023-03-28T15:10:11.267Z,6.82
2023-03-28T15:13:08.226Z,5.32
2023-03-28T15:15:41.808Z,6.22
2023-03-28T15:18:14.911Z,7.72
2023-03-28T15:20:48.372Z,8.45
2023-03-28T15:23:24.676Z,5.13
2023-03-28T15:25:53.355Z,8.40
2023-03-28T15:28:21.045Z,8.65
2023-03-28T15:30:50.734Z,7.03
2023-03-28T15:33:22.273Z,6.70
2023-03-28T15:35:50.078Z,8.50
2023-03-28T15:38:27.209Z,7.00
2023-03-28T15:41:23.421Z,7.20
2023-03-28T15:44:11.816Z,8.60
2023-03-28T15:46:40.278Z,5.82
2023-03-28T15:49:08.160Z,8.57
2023-03-28T15:52:05.427Z,5.28
2023-03-28T15:54:35.909Z,6.97
2023-03-28T15:57:03.951Z,11.75
2023-03-28T15:59:40.578Z,6.88
2023-03-28T16:02:27.340Z,6.55
2023-03-28T16:04:59.446Z,6.57
2023-03-28T16:07:27.637Z,8.25
2023-03-28T16:09:55.226Z,7.85
2023-03-28T16:12:26.238Z,8.95
2023-03-28T16:14:57.895Z,9.10
2023-03-28T16:17:27.425Z,7.32
2023-03-28T16:19:55.647Z,10.75
2023-03-28T16:22:26.748Z,7.72
2023-03-28T16:24:58.239Z,8.50
2023-03-28T16:27:27.010Z,10.80
2023-03-28T16:29:57.222Z,9.73
2023-03-28T16:32:25.266Z,6.18
2023-03-28T16:34:52.964Z,8.45
2023-03-28T16:37:21.077Z,8.25
2023-03-28T16:39:48.812Z,8.55
2023-03-28T16:42:18.853Z,8.50
2023-03-28T16:44:46.536Z,8.45
2023-03-28T16:47:15.908Z,7.05
2023-03-28T16:49:43.858Z,6.80
2023-03-28T16:52:11.951Z,7.07
2023-03-28T16:54:39.781Z,8.05
2023-03-28T16:57:07.449Z,8.05
2023-03-28T16:59:35.115Z,10.52
2023-03-28T17:02:02.743Z,11.55
2023-03-28T17:04:30.813Z,9.98
2023-03-28T17:06:58.540Z,10.07
2023-03-28T17:09:26.670Z,9.57
2023-03-28T17:11:54.294Z,10.20
2023-03-28T17:18:21.617Z,10.73
2023-03-28T17:20:59.102Z,10.32
2023-03-28T17:23:26.230Z,11.15
2023-03-28T17:25:54.983Z,10.45
2023-03-28T17:28:25.872Z,12.85
2023-03-28T17:30:53.130Z,12.40
2023-03-28T17:33:20.917Z,12.25
2023-03-28T17:35:48.566Z,17.48
2023-03-28T17:38:15.929Z,13.73
2023-03-28T17:40:47.348Z,11.02
2023-03-28T17:43:14.638Z,7.50
2023-03-28T17:45:41.722Z,11.13
2023-03-28T17:48:09.176Z,10.25
2023-03-28T17:50:37.244Z,8.52
2023-03-28T17:53:04.426Z,7.25
2023-03-28T17:55:31.576Z,13.98
2023-03-28T17:57:58.615Z,12.02
2023-03-28T18:00:26.959Z,10.65
2023-03-28T18:02:54.702Z,11.32
2023-03-28T18:05:22.544Z,12.18
2023-03-28T18:07:49.758Z,8.73
2023-03-28T18:10:17.369Z,13.57
2023-03-28T18:12:44.530Z,15.70
2023-03-28T18:15:11.696Z,7.65
2023-03-28T18:17:39.032Z,8.10
2023-03-28T18:20:06.932Z,9.13
2023-03-28T18:22:35.277Z,9.90
2023-03-28T18:25:05.175Z,11.90
2023-03-28T18:27:32.611Z,10.27
2023-03-28T18:30:04.897Z,7.63
2023-03-28T18:32:32.102Z,8.65
2023-03-28T18:34:59.226Z,8.50
2023-03-28T18:37:27.141Z,9.98
2023-03-28T18:39:54.306Z,8.00
2023-03-28T18:42:21.683Z,8.82
2023-03-28T18:44:49.025Z,8.15
2023-03-28T18:47:16.865Z,8.82
2023-03-28T18:49:43.928Z,9.55
2023-03-28T18:52:11.016Z,11.18
2023-03-28T18:54:38.604Z,11.15
2023-03-28T18:57:05.728Z,10.52
2023-03-28T18:59:32.872Z,9.25
2023-03-28T19:02:01.007Z,12.35
2023-03-28T19:04:28.657Z,7.55
2023-03-28T19:06:56.622Z,10.07
2023-03-28T19:09:23.714Z,11.15
2023-03-28T19:11:51.359Z,7.82
2023-03-28T19:14:18.553Z,6.22
2023-03-28T19:16:45.845Z,7.50
2023-03-28T19:19:12.969Z,9.63
2023-03-28T19:21:40.182Z,8.68
2023-03-28T19:24:07.620Z,12.75
2023-03-28T19:26:34.720Z,15.35
2023-03-28T19:29:04.794Z,11.63
2023-03-28T19:31:31.927Z,15.55
2023-03-28T19:33:58.975Z,12.73
2023-03-28T19:36:26.155Z,14.88
2023-03-28T19:38:53.304Z,13.73
2023-03-28T19:41:24.662Z,11.25
2023-03-28T19:43:51.776Z,11.00
2023-03-28T19:46:32.576Z,11.10
2023-03-28T19:49:03.616Z,9.13
2023-03-28T19:51:31.150Z,9.70
2023-03-28T19:53:58.184Z,8.10
2023-03-28T19:56:25.404Z,10.25
2023-03-28T19:58:52.518Z,9.35
2023-03-28T20:01:20.157Z,10.30
2023-03-28T20:03:52.277Z,6.60
2023-03-28T20:06:21.310Z,8.60
2023-03-28T20:08:48.479Z,10.52
2023-03-28T20:11:16.158Z,6.70
2023-03-28T20:13:43.738Z,8.70
2023-03-28T20:16:12.268Z,6.95
2023-03-28T20:18:39.768Z,8.20
2023-03-28T20:21:10.348Z,8.80
2023-03-28T20:23:37.870Z,7.40
2023-03-28T20:26:15.685Z,7.35
2023-03-28T20:28:42.835Z,6.63
2023-03-28T20:31:12.689Z,6.47
2023-03-28T20:33:41.089Z,8.50
2023-03-28T20:36:08.737Z,8.48
2023-03-28T20:38:35.860Z,6.55
2023-03-28T20:41:03.157Z,7.22
2023-03-28T20:43:30.417Z,8.23
2023-03-28T20:46:01.730Z,8.18
2023-03-28T20:48:36.848Z,7.45
2023-03-28T20:51:19.120Z,8.75
2023-03-28T20:53:51.321Z,8.52
2023-03-28T20:56:20.081Z,8.07
2023-03-28T20:58:47.922Z,7.78
2023-03-28T21:01:16.705Z,8.80
2023-03-28T21:03:48.295Z,8.50
2023-03-28T21:06:21.437Z,8.43
2023-03-28T21:11:19.823Z,7.13
2023-03-28T21:13:46.871Z,7.22
2023-03-28T21:16:14.863Z,8.20
2023-03-28T21:18:42.078Z,9.55
2023-03-28T21:21:10.989Z,9.30
2023-03-28T21:23:53.300Z,7.55
2023-03-28T21:26:22.927Z,9.30
2023-03-28T21:28:52.429Z,7.53
2023-03-28T21:31:24.809Z,9.05
2023-03-28T21:33:53.710Z,8.75
2023-03-28T21:36:21.073Z,11.77
2023-03-28T21:38:48.791Z,10.07
2023-03-28T21:41:16.843Z,12.70
2023-03-28T21:43:44.571Z,11.70
2023-03-28T21:46:13.679Z,11.90
2023-03-28T21:48:44.705Z,11.63
2023-03-28T21:51:12.118Z,13.07
2023-03-28T21:53:39.698Z,11.43
2023-03-28T21:56:07.663Z,8.63
2023-03-28T21:58:34.991Z,11.55
2023-03-28T22:01:04.141Z,9.88
2023-03-28T22:03:31.744Z,12.38
2023-03-28T22:05:58.958Z,9.82
2023-03-28T22:08:26.300Z,10.88
2023-03-28T22:10:57.437Z,10.73
2023-03-28T22:13:25.064Z,10.40
2023-03-28T22:15:58.646Z,10.18
2023-03-28T22:18:26.810Z,10.10
2023-03-28T22:20:54.131Z,9.75
2023-03-28T22:23:22.788Z,11.98
2023-03-28T22:25:50.208Z,10.10
2023-03-28T22:28:18.773Z,11.45
2023-03-28T22:30:46.109Z,9.25
2023-03-28T22:33:13.607Z,9.30
2023-03-28T22:35:40.746Z,10.10
2023-03-28T22:38:08.278Z,9.55
2023-03-28T22:40:35.593Z,9.90
2023-03-28T22:43:03.460Z,9.93
2023-03-28T22:45:31.027Z,11.30
2023-03-28T22:48:00.638Z,8.38
2023-03-28T22:50:28.220Z,9.85
2023-03-28T22:52:55.896Z,9.80
2023-03-28T22:55:24.364Z,9.90
2023-03-28T22:57:52.840Z,11.68
2023-03-28T23:00:23.963Z,10.80
2023-03-28T23:02:52.154Z,10.27
2023-03-28T23:05:19.835Z,8.90
2023-03-28T23:07:47.449Z,8.32
2023-03-28T23:10:18.156Z,9.90
2023-03-28T23:12:46.119Z,8.93
2023-03-28T23:15:13.650Z,7.78
2023-03-28T23:17:41.029Z,9.25
2023-03-28T23:20:15.071Z,8.80
2023-03-28T23:22:44.780Z,8.00
2023-03-28T23:25:13.461Z,9.50
2023-03-28T23:27:40.947Z,8.23
2023-03-28T23:30:10.250Z,7.20
2023-03-28T23:32:38.011Z,9.77
2023-03-28T23:35:06.022Z,7.55
2023-03-28T23:37:34.756Z,9.00
2023-03-28T23:40:02.315Z,9.13
2023-03-28T23:42:29.960Z,8.07
2023-03-28T23:44:56.986Z,6.30
2023-03-28T23:47:24.285Z,8.10
2023-03-28T23:49:51.313Z,6.43
2023-03-28T23:52:18.361Z,6.13
2023-03-28T23:54:45.534Z,7.85
2023-03-28T23:57:12.604Z,6.85
2023-03-28T23:59:39.676Z,6.43
